Pensacola Regional Airport
KPNS : now visible

Airfield :











YOU CAN JOIN US ON...

 
LOGIN :

Register | Disclaimer

   EN    FR    IT 

 









Legend :    VFR   Marginal VFR   IFR   Intensive IFR   Very Intensive IFR
Visi :
Ceiling :
>= 8 km
>= 3000ft
5 to 8 km
1000 to 3000 ft
1500m to 5 km
500 to 1000 ft
800 to 1500m
200 to 500 ft
< 800m
< 200 ft
Symbols :   Thunderstorms  Fog  Heavy snow  Heavy precipitations  Wind > 20 kt






- Airport Elevation : 121 ft
- IATA code : PNS


KPNS - Pensacola Regional

CURRENT METAR :
  • 190253Z 17004KT 10SM FEW017 BKN040 BKN050 18/18 A3014 RMK AO2 SLP209 T01830178 53001 $

EXPIRED METARs :
  • 190221Z 14004KT 10SM FEW019 BKN028 BKN036 18/17 A3015 RMK AO2 T01830172 $
  • 190153Z 00000KT 10SM CLR 18/17 A3014 RMK AO2 SLP208 T01830172 $
  • 190128Z 00000KT 10SM SCT020 19/18 A3014 RMK AO2 T01890178 $
  • 190053Z 00000KT 10SM SCT020 BKN029 OVC049 19/18 A3014 RMK AO2 SLP208 T01940183 $
  • 190038Z 00000KT 10SM SCT022 SCT029 BKN036 19/18 A3014 RMK AO2 T01940183 $
  • 182355Z 15004KT 10SM FEW007 BKN023 19/18 A3013 RMK AO2 T01890178 $

TAF KPNS
Valid from the 19 at 02:00 until the 20 at 00:00 UTC


190211Z 1902/1924 00000KT P6SM VCSH SKC
FM190600 29005G15KT 6SM BR VCSH OVC035
FM191200 34011G19KT P6SM OVC035
FM191500 36019KT P6SM SCT035 BKN250



MET'MAP, your aeronautical weather chart ! - Copyright ORBIFLY December 2007 - Disclaimer

ORBIFLY MET'MAP TEAM :

Programming & Development : Alexandra Zaïnal
Concept & original design : Baudouin d'Aumeries
Assistance for programming : Marc-Olivier Méhu
Technical & hardware support : Manuel Goepfert

Contact : metmap@orbifly.com




SOURCES & CREDITS :

   NOAA       Earth
Advisory